createdAt,value
2023-04-17T00:04:05.482Z,29.7
2023-04-17T00:09:58.635Z,29.6
2023-04-17T00:16:04.379Z,29.6
2023-04-17T00:21:41.214Z,29.6
2023-04-17T00:32:54.564Z,29.6
2023-04-17T00:38:45.547Z,29.5
2023-04-17T00:44:37.410Z,29.5
2023-04-17T00:50:29.205Z,29.5
2023-04-17T00:56:20.399Z,29.4
2023-04-17T01:02:13.653Z,29.4
2023-04-17T01:08:07.751Z,29.4
2023-04-17T01:13:28.105Z,29.4
2023-04-17T01:19:19.800Z,29.4
2023-04-17T01:25:11.444Z,29.4
2023-04-17T01:31:02.500Z,29.3
2023-04-17T01:36:54.542Z,29.3
2023-04-17T01:42:30.383Z,29.3
2023-04-17T01:48:22.363Z,29.3
2023-04-17T01:53:58.834Z,29.3
2023-04-17T01:59:34.993Z,29.3
2023-04-17T02:05:27.944Z,29.2
2023-04-17T02:11:05.040Z,29.2
2023-04-17T02:16:56.347Z,29.2
2023-04-17T02:22:32.666Z,29.1
2023-04-17T02:28:09.385Z,29.3
2023-04-17T02:34:01.263Z,29.4
2023-04-17T02:39:52.248Z,29.4
2023-04-17T02:45:44.014Z,29.4
2023-04-17T02:51:20.622Z,29.3
2023-04-17T02:57:12.025Z,29.3
2023-04-17T03:03:04.877Z,29.2
2023-04-17T03:08:57.420Z,29.2
2023-04-17T03:14:48.636Z,29.1
2023-04-17T03:20:43.564Z,29.1
2023-04-17T03:26:35.135Z,29.1
2023-04-17T03:32:13.623Z,29
2023-04-17T03:37:50.124Z,29
2023-04-17T03:43:42.295Z,28.9
2023-04-17T03:49:18.175Z,28.9
2023-04-17T03:54:55.111Z,28.9
2023-04-17T04:06:23.984Z,28.9
2023-04-17T04:12:15.562Z,28.8
2023-04-17T04:17:52.445Z,28.8
2023-04-17T04:23:28.810Z,28.8
2023-04-17T04:29:21.792Z,28.8
2023-04-17T04:40:22.815Z,28.7
2023-04-17T04:45:59.156Z,28.7
2023-04-17T04:51:20.250Z,28.8
2023-04-17T04:56:39.612Z,28.7
2023-04-17T05:02:16.736Z,28.7
2023-04-17T05:07:55.475Z,28.6
2023-04-17T05:13:31.435Z,28.6
2023-04-17T05:19:25.770Z,28.6
2023-04-17T05:25:17.004Z,28.5
2023-04-17T05:30:52.675Z,28.4
2023-04-17T05:36:29.745Z,28.4
2023-04-17T05:42:09.263Z,28.4
2023-04-17T05:47:44.936Z,28.3
2023-04-17T05:53:21.467Z,28.3
2023-04-17T05:59:12.592Z,28.3
2023-04-17T06:04:52.148Z,28.3
2023-04-17T06:10:31.652Z,28.3
2023-04-17T06:16:07.677Z,28.3
2023-04-17T06:21:45.412Z,28.2
2023-04-17T06:27:21.864Z,28.2
2023-04-17T06:32:57.634Z,28.1
2023-04-17T06:38:41.927Z,28.1
2023-04-17T06:44:03.135Z,28.1
2023-04-17T06:49:39.815Z,28.1
2023-04-17T06:55:15.329Z,28.1
2023-04-17T07:00:52.199Z,28.1
2023-04-17T07:06:33.362Z,28.1
2023-04-17T07:17:15.563Z,27.9
2023-04-17T07:22:53.234Z,27.9
2023-04-17T07:28:29.305Z,27.9
2023-04-17T07:34:06.559Z,30.8
2023-04-17T07:39:46.447Z,29
2023-04-17T07:45:22.229Z,28.8
2023-04-17T07:50:49.431Z,28.8
2023-04-17T07:56:28.996Z,28.7
2023-04-17T08:01:49.581Z,28.6
2023-04-17T08:07:29.354Z,28.6
2023-04-17T08:13:18.798Z,31.6
2023-04-17T08:18:40.106Z,31.4
2023-04-17T08:24:19.404Z,31.4
2023-04-17T08:29:57.013Z,32
2023-04-17T08:36:07.208Z,32.3
2023-04-17T08:41:45.202Z,32.4
2023-04-17T08:47:38.611Z,32.1
2023-04-17T08:53:30.218Z,31.5
2023-04-17T08:58:51.588Z,31.5
2023-04-17T09:04:31.100Z,32.3
2023-04-17T09:10:07.260Z,32.9
2023-04-17T09:16:00.227Z,33.1
2023-04-17T09:21:21.911Z,32.8
2023-04-17T09:26:42.426Z,33.6
2023-04-17T09:32:04.437Z,33.8
2023-04-17T09:37:43.881Z,34
2023-04-17T09:43:35.543Z,33.6
2023-04-17T09:49:27.700Z,32.8
2023-04-17T09:55:21.036Z,31.5
2023-04-17T10:00:57.397Z,30.6
2023-04-17T10:06:51.622Z,30.6
2023-04-17T10:12:43.629Z,31
2023-04-17T10:18:35.897Z,31.5
2023-04-17T10:24:30.514Z,32.2
2023-04-17T10:30:22.953Z,33.1
2023-04-17T10:36:19.086Z,34.4
2023-04-17T10:41:56.161Z,35.7
2023-04-17T10:47:49.218Z,35.9
2023-04-17T10:53:42.188Z,36.3
2023-04-17T10:59:37.791Z,37.7
2023-04-17T11:05:32.036Z,37
2023-04-17T11:11:09.576Z,37.1
2023-04-17T11:17:02.770Z,36.1
2023-04-17T11:22:39.920Z,35.8
2023-04-17T11:28:16.545Z,37.6
2023-04-17T11:33:38.064Z,38.6
2023-04-17T11:39:15.076Z,36.7
2023-04-17T11:44:36.573Z,35.5
2023-04-17T11:50:28.912Z,34.8
2023-04-17T11:56:20.181Z,35
2023-04-17T12:02:12.610Z,37.1
2023-04-17T12:07:52.731Z,37.2
2023-04-17T12:13:44.776Z,37
2023-04-17T12:19:20.829Z,37.9
2023-04-17T12:25:12.904Z,39.8
2023-04-17T12:30:49.445Z,40.1
2023-04-17T12:36:25.931Z,40.1
2023-04-17T12:42:19.951Z,40.1
2023-04-17T12:48:09.893Z,39.9
2023-04-17T12:54:01.289Z,38.6
2023-04-17T12:59:52.841Z,38.3
2023-04-17T13:05:47.665Z,38.4
2023-04-17T13:11:23.189Z,38.4
2023-04-17T13:16:59.711Z,38.2
2023-04-17T13:22:53.304Z,38.1
2023-04-17T13:28:44.390Z,37.8
2023-04-17T13:34:38.774Z,37.4
2023-04-17T13:40:33.971Z,36.9
2023-04-17T13:46:12.158Z,35.6
2023-04-17T13:52:04.647Z,35.4
2023-04-17T13:57:56.916Z,35.3
2023-04-17T14:03:35.270Z,35.6
2023-04-17T14:09:17.220Z,34.9
2023-04-17T14:15:08.858Z,34.9
2023-04-17T14:26:29.445Z,34.7
2023-04-17T14:32:05.533Z,34.5
2023-04-17T14:37:47.216Z,34.4
2023-04-17T14:43:40.369Z,34.3
2023-04-17T14:49:44.477Z,34.1
2023-04-17T14:55:34.631Z,33.8
2023-04-17T15:01:26.696Z,33.4
2023-04-17T15:07:19.763Z,33
2023-04-17T15:13:11.750Z,32.7
2023-04-17T15:18:48.440Z,32.4
2023-04-17T15:24:40.190Z,32.2
2023-04-17T15:30:31.320Z,31.9
2023-04-17T15:36:22.663Z,31.4
2023-04-17T15:42:16.259Z,31
2023-04-17T15:48:10.057Z,30.8
2023-04-17T15:54:26.723Z,30.4
2023-04-17T16:00:18.025Z,30.1
2023-04-17T16:06:11.435Z,29.8
2023-04-17T16:11:47.793Z,29.6
2023-04-17T16:17:39.245Z,29.3
2023-04-17T16:23:30.658Z,28.9
2023-04-17T16:29:22.929Z,28.6
2023-04-17T16:34:59.888Z,28.3
2023-04-17T16:40:40.498Z,27.9
2023-04-17T16:46:40.137Z,27.6
2023-04-17T16:52:50.620Z,26.9
2023-04-17T16:58:41.523Z,26.3
2023-04-17T17:04:34.793Z,26
2023-04-17T17:15:16.281Z,25.6
2023-04-17T17:21:08.639Z,25.4
2023-04-17T17:26:43.251Z,25.3
2023-04-17T17:32:35.290Z,25.2
2023-04-17T17:38:23.307Z,25.1
2023-04-17T17:43:59.557Z,25
2023-04-17T17:49:53.528Z,24.9
2023-04-17T17:55:47.596Z,24.8
2023-04-17T18:01:37.348Z,24.6
2023-04-17T18:07:16.260Z,24.6
2023-04-17T18:12:37.173Z,24.5
2023-04-17T18:18:14.143Z,24.4
2023-04-17T18:23:49.754Z,24.4
2023-04-17T18:29:25.913Z,24.3
2023-04-17T18:35:02.541Z,24.3
2023-04-17T18:40:56.720Z,24.2
2023-04-17T18:52:09.827Z,24.1
2023-04-17T18:57:52.051Z,24.1
2023-04-17T19:02:58.928Z,24
2023-04-17T19:08:36.753Z,23.9
2023-04-17T19:14:29.577Z,23.9
2023-04-17T19:20:22.384Z,23.9
2023-04-17T19:26:15.249Z,23.9
2023-04-17T19:31:52.657Z,23.9
2023-04-17T19:37:45.989Z,23.9
2023-04-17T19:43:20.055Z,24
2023-04-17T19:49:15.124Z,24.3
2023-04-17T19:54:38.020Z,24.7
2023-04-17T20:00:16.023Z,25.1
2023-04-17T20:05:56.696Z,25.8
2023-04-17T20:11:33.723Z,26.4
2023-04-17T20:17:10.500Z,26.9
2023-04-17T20:23:04.657Z,27.4
2023-04-17T20:28:56.206Z,27.6
2023-04-17T20:34:49.213Z,27.8
2023-04-17T20:40:09.194Z,27.9
2023-04-17T20:46:01.656Z,27.9
2023-04-17T20:52:06.607Z,27.9
2023-04-17T20:57:57.875Z,28
2023-04-17T21:03:48.641Z,28
2023-04-17T21:09:25.464Z,28
2023-04-17T21:14:46.227Z,28
2023-04-17T21:20:22.769Z,28.1
2023-04-17T21:26:13.790Z,28.1
2023-04-17T21:37:26.288Z,28
2023-04-17T21:43:04.738Z,28
2023-04-17T21:48:56.025Z,28
2023-04-17T21:54:47.870Z,28
2023-04-17T22:00:38.558Z,28
2023-04-17T22:06:30.824Z,27.9
2023-04-17T22:12:02.777Z,27.9
2023-04-17T22:17:39.287Z,27.9
2023-04-17T22:23:30.782Z,27.9
2023-04-17T22:29:07.120Z,27.9
2023-04-17T22:34:43.148Z,27.9
2023-04-17T22:40:33.881Z,27.9
2023-04-17T22:46:10.876Z,27.9
2023-04-17T22:51:32.202Z,27.9
2023-04-17T22:57:18.795Z,27.9
2023-04-17T23:03:11.123Z,27.9
2023-04-17T23:08:47.642Z,27.9
2023-04-17T23:47:52.733Z,27.8
2023-04-17T23:53:44.674Z,27.8
2023-04-17T23:59:36.657Z,27.8
